LEGR/GRX METAR and TAF weather

Enter ICAO airport designator
Station Type Date Time Source
LEGR METAR 2021/03/08 02:30 UTC NOAA

LEGR 080230Z AUTO 00000KT 9000 OVC048 06/06 Q1015


Station Type Date Time Source
LEGR Decoded METAR 2021/03/08 02:30 UTC NOAA

Granada / Aeropuerto, Spain (LEGR) 37-11N 003-47W 570M
Mar 07, 2021 - 09:30 PM EST / 2021.03.08 0230 UTC
Wind: Calm:0
Visibility: 5 mile(s):0
Sky conditions: overcast
Temperature: 42 F (6 C)
Dew Point: 42 F (6 C)
Relative Humidity: 100%
Pressure (altimeter): 29.97 in. Hg (1015 hPa)
ob: LEGR 080230Z AUTO 00000KT 9000 OVC048 06/06 Q1015
cycle: 2

Station Type Date Time Source
LEGR TAF 2021/03/08 03:31 UTC NOAA

TAF LEGR 080200Z 0803/0903 VRB02KT 9999 FEW015 SCT040 TX16/0815Z TN05/0805Z PROB40
TEMPO 0803/0809 3000 BR BKN010 PROB40
TEMPO 0813/0816 30010KT PROB40
TEMPO 0814/0819 3000 SHRA SCT015 SCT030CB

Example: see airport list